Time;durP1;ratioP1;P1;durP2;ratioP2;P2;SDS_P1;SDS_P2;PMS_P1;PMS_P2;Temp;Humidity;BMP_temperature;BMP_pressure;BME280_temperature;BME280_humidity;BME280_pressure;Samples;Min_cycle;Max_cycle;Signal;HPM_P1;HPM_P2
2023/10/21 00:01:18;;;;;;;0.50;0.50;;;12.20;99.90;;;;;;5074306;28;20849;-82
2023/10/21 00:03:45;;;;;;;0.30;0.30;;;12.20;99.90;;;;;;5073968;28;21015;-82
2023/10/21 00:06:11;;;;;;;0.30;0.30;;;12.30;99.90;;;;;;5074278;28;20445;-82
2023/10/21 00:08:38;;;;;;;0.40;0.33;;;12.30;99.90;;;;;;5074307;28;20456;-82
2023/10/21 00:11:08;;;;;;;0.30;0.30;;;12.40;99.90;;;;;;5074222;28;20441;-82
2023/10/21 00:13:35;;;;;;;0.40;0.37;;;12.30;99.90;;;;;;5073768;28;20989;-82
2023/10/21 00:16:02;;;;;;;0.40;0.40;;;12.30;99.90;;;;;;5074087;28;20449;-82
2023/10/21 00:18:29;;;;;;;0.40;0.37;;;12.30;99.90;;;;;;5074276;28;20452;-82
2023/10/21 00:20:56;;;;;;;2.87;0.40;;;12.30;99.90;;;;;;5073884;28;20484;-82
2023/10/21 00:23:23;;;;;;;0.30;0.30;;;12.40;99.90;;;;;;5073936;28;20457;-83
2023/10/21 00:25:49;;;;;;;0.80;0.33;;;12.50;99.90;;;;;;5073892;28;20453;-82
2023/10/21 00:28:17;;;;;;;0.40;0.40;;;12.40;99.90;;;;;;5073859;28;20448;-82
2023/10/21 00:30:47;;;;;;;0.30;0.30;;;12.50;99.90;;;;;;5073625;28;20442;-82
2023/10/21 00:33:14;;;;;;;0.30;0.30;;;12.50;99.90;;;;;;5074823;28;20820;-82
2023/10/21 00:35:45;;;;;;;0.40;0.40;;;12.50;99.90;;;;;;5073758;28;20445;-82
2023/10/21 00:38:12;;;;;;;2.27;0.43;;;12.40;99.90;;;;;;5073795;28;20434;-83
2023/10/21 00:40:39;;;;;;;0.30;0.30;;;12.40;99.90;;;;;;5073589;28;20448;-83
2023/10/21 00:43:05;;;;;;;0.40;0.37;;;12.40;99.90;;;;;;5073607;28;20549;-82
2023/10/21 00:45:33;;;;;;;0.40;0.30;;;12.50;99.90;;;;;;5073309;28;20440;-82
2023/10/21 00:48:00;;;;;;;0.40;0.30;;;12.50;99.90;;;;;;5073952;28;20444;-82
2023/10/21 00:50:27;;;;;;;1.90;0.40;;;12.40;99.90;;;;;;5072548;28;20853;-83
2023/10/21 00:52:54;;;;;;;0.50;0.43;;;12.40;99.90;;;;;;5073461;28;20461;-82
2023/10/21 00:55:20;;;;;;;0.40;0.40;;;12.40;99.90;;;;;;5074046;28;20798;-83
2023/10/21 00:57:47;;;;;;;0.40;0.33;;;12.30;99.90;;;;;;5073466;28;20452;-82
2023/10/21 01:00:16;;;;;;;0.40;0.30;;;12.30;99.90;;;;;;5073205;28;20814;-82
2023/10/21 01:02:46;;;;;;;0.30;0.30;;;12.30;99.90;;;;;;5072941;28;20492;-81
2023/10/21 01:05:15;;;;;;;0.40;0.30;;;12.30;99.90;;;;;;5073128;28;20895;-82
2023/10/21 01:07:44;;;;;;;0.63;0.63;;;12.30;99.90;;;;;;5073060;28;20475;-82
2023/10/21 01:10:11;;;;;;;0.60;0.50;;;12.30;99.90;;;;;;5073333;28;20445;-82
2023/10/21 01:12:39;;;;;;;0.30;0.30;;;12.40;99.90;;;;;;5072905;28;20463;-82
2023/10/21 01:15:08;;;;;;;0.30;0.30;;;12.40;99.90;;;;;;5073059;28;20449;-82
2023/10/21 01:17:34;;;;;;;0.30;0.30;;;12.40;99.90;;;;;;5073253;28;20452;-82
2023/10/21 01:20:06;;;;;;;0.30;0.30;;;12.40;99.90;;;;;;5073258;28;20437;-83
2023/10/21 01:22:32;;;;;;;0.30;0.20;;;12.40;99.90;;;;;;5072780;28;20890;-82
2023/10/21 01:25:01;;;;;;;0.30;0.30;;;12.40;99.90;;;;;;5073182;28;20456;-82
2023/10/21 01:27:27;;;;;;;3.70;0.33;;;12.40;99.90;;;;;;5073179;28;20899;-82
2023/10/21 01:29:54;;;;;;;0.30;0.30;;;12.40;99.90;;;;;;5072794;28;20462;-82
2023/10/21 01:32:21;;;;;;;3.80;0.30;;;12.50;99.90;;;;;;5072716;28;20441;-83
2023/10/21 01:34:47;;;;;;;0.30;0.30;;;12.50;99.90;;;;;;5073078;28;20452;-83
2023/10/21 01:37:15;;;;;;;1.80;0.30;;;12.50;99.90;;;;;;5073657;28;20452;-82
2023/10/21 01:39:42;;;;;;;0.30;0.30;;;12.60;99.90;;;;;;5072883;28;20448;-83
2023/10/21 01:42:10;;;;;;;0.30;0.20;;;12.60;99.90;;;;;;5072970;28;20480;-83
2023/10/21 01:44:37;;;;;;;0.30;0.30;;;12.60;99.90;;;;;;5072964;28;20837;-83
2023/10/21 01:47:04;;;;;;;0.30;0.30;;;12.70;99.90;;;;;;5073403;28;20829;-82
2023/10/21 01:49:31;;;;;;;0.30;0.20;;;12.70;99.90;;;;;;5072632;28;20452;-83
2023/10/21 01:51:58;;;;;;;2.10;0.57;;;12.60;99.90;;;;;;5072691;28;21000;-83
2023/10/21 01:54:25;;;;;;;0.30;0.30;;;12.70;99.90;;;;;;5072556;28;21001;-82
2023/10/21 01:56:52;;;;;;;0.40;0.30;;;12.70;99.90;;;;;;5072854;28;21032;-82
2023/10/21 01:59:20;;;;;;;0.30;0.30;;;12.70;99.90;;;;;;5072876;28;20449;-82
2023/10/21 02:01:47;;;;;;;0.30;0.20;;;12.70;99.90;;;;;;5073319;28;20484;-82
2023/10/21 02:04:13;;;;;;;0.30;0.30;;;12.70;99.90;;;;;;5076820;28;20456;-82
2023/10/21 02:06:40;;;;;;;0.30;0.20;;;12.80;99.90;;;;;;5076604;28;20456;-82
2023/10/21 02:09:07;;;;;;;0.40;0.30;;;12.70;99.90;;;;;;5076618;28;20810;-83
2023/10/21 02:11:34;;;;;;;0.30;0.30;;;12.70;99.90;;;;;;5076505;28;20451;-82
2023/10/21 02:14:00;;;;;;;0.30;0.30;;;12.70;99.90;;;;;;5076401;28;20460;-82
2023/10/21 02:16:29;;;;;;;0.40;0.30;;;12.70;99.90;;;;;;5076406;28;20444;-83
2023/10/21 02:18:55;;;;;;;0.30;0.20;;;12.80;99.90;;;;;;5076389;28;20495;-82
2023/10/21 02:21:22;;;;;;;0.30;0.30;;;12.70;99.90;;;;;;5076213;28;20842;-82
2023/10/21 02:23:49;;;;;;;0.30;0.20;;;12.70;99.90;;;;;;5076054;28;20460;-82
2023/10/21 02:26:16;;;;;;;0.30;0.30;;;12.70;99.90;;;;;;5075886;28;20933;-83
2023/10/21 02:28:42;;;;;;;0.30;0.30;;;12.70;99.90;;;;;;5076216;28;20444;-83
2023/10/21 02:31:09;;;;;;;0.30;0.30;;;12.70;99.90;;;;;;5076114;28;20440;-82
2023/10/21 02:33:37;;;;;;;0.30;0.30;;;12.70;99.90;;;;;;5076173;28;20972;-82
2023/10/21 02:36:04;;;;;;;0.30;0.30;;;12.70;99.90;;;;;;5075840;28;20456;-82
2023/10/21 02:38:31;;;;;;;0.30;0.30;;;12.70;99.90;;;;;;5075998;28;20447;-82
2023/10/21 02:40:58;;;;;;;0.30;0.30;;;12.60;99.90;;;;;;5075698;28;20441;-82
2023/10/21 02:43:24;;;;;;;0.30;0.30;;;12.60;99.90;;;;;;5075580;28;20468;-82
2023/10/21 02:45:51;;;;;;;0.60;0.40;;;12.50;99.90;;;;;;5076103;28;20441;-82
2023/10/21 02:48:18;;;;;;;0.40;0.30;;;12.60;99.90;;;;;;5076009;28;20823;-82
2023/10/21 02:50:48;;;;;;;0.97;0.30;;;12.60;99.90;;;;;;5075579;28;20472;-82
2023/10/21 02:53:14;;;;;;;0.30;0.27;;;12.60;99.90;;;;;;5075383;28;20993;-82
2023/10/21 02:55:41;;;;;;;0.30;0.20;;;12.80;99.90;;;;;;5075978;28;20445;-82
2023/10/21 02:58:08;;;;;;;0.70;0.30;;;12.60;99.90;;;;;;5075650;28;20437;-82
2023/10/21 03:00:35;;;;;;;0.30;0.30;;;12.60;99.90;;;;;;5075622;28;20448;-83
2023/10/21 03:03:02;;;;;;;0.30;0.30;;;12.50;99.90;;;;;;5075418;28;20484;-82
2023/10/21 03:05:28;;;;;;;0.40;0.37;;;12.50;99.90;;;;;;5075612;28;20448;-82
2023/10/21 03:07:56;;;;;;;0.30;0.30;;;12.60;99.90;;;;;;5075224;28;20956;-82
2023/10/21 03:10:23;;;;;;;0.30;0.30;;;12.60;99.90;;;;;;5075171;28;20972;-82
2023/10/21 03:12:50;;;;;;;0.30;0.30;;;12.50;99.90;;;;;;5075053;28;20457;-82
2023/10/21 03:15:17;;;;;;;0.40;0.40;;;12.60;99.90;;;;;;5074855;28;20448;-82
2023/10/21 03:17:43;;;;;;;0.40;0.30;;;12.60;99.90;;;;;;5075312;28;20452;-82
2023/10/21 03:20:11;;;;;;;0.30;0.30;;;12.50;99.90;;;;;;5075309;28;20448;-82
2023/10/21 03:22:38;;;;;;;0.30;0.30;;;12.50;99.90;;;;;;5075090;28;20476;-82
2023/10/21 03:25:07;;;;;;;0.30;0.30;;;12.50;99.90;;;;;;5075052;28;20449;-82
2023/10/21 03:27:34;;;;;;;0.30;0.30;;;12.50;99.90;;;;;;5075136;28;20532;-83
2023/10/21 03:30:01;;;;;;;0.30;0.30;;;12.50;99.90;;;;;;5075113;28;20444;-82
2023/10/21 03:32:27;;;;;;;0.30;0.20;;;12.50;99.90;;;;;;5074945;28;20437;-82
2023/10/21 03:34:54;;;;;;;0.30;0.30;;;12.50;99.90;;;;;;5074954;28;20451;-82
2023/10/21 03:37:21;;;;;;;0.30;0.30;;;12.50;99.90;;;;;;5074583;28;20804;-82
2023/10/21 03:39:48;;;;;;;0.80;0.40;;;12.50;99.90;;;;;;5074821;28;20441;-82
2023/10/21 03:42:16;;;;;;;0.30;0.30;;;12.50;99.90;;;;;;5074418;28;20483;-82
2023/10/21 03:44:43;;;;;;;0.60;0.30;;;12.50;99.90;;;;;;5074604;28;21033;-82
2023/10/21 03:47:10;;;;;;;0.30;0.30;;;12.50;99.90;;;;;;5074817;28;20453;-82
2023/10/21 03:49:37;;;;;;;0.40;0.30;;;12.40;99.90;;;;;;5074766;28;20436;-82
2023/10/21 03:52:04;;;;;;;1.27;0.30;;;12.50;99.90;;;;;;5074275;28;20949;-82
2023/10/21 03:54:31;;;;;;;0.37;0.30;;;12.40;99.90;;;;;;5074213;28;20979;-82
2023/10/21 03:56:58;;;;;;;0.30;0.30;;;12.40;99.90;;;;;;5074230;28;20447;-82
2023/10/21 03:59:26;;;;;;;0.37;0.30;;;12.40;99.90;;;;;;5074719;28;20444;-83
2023/10/21 04:01:53;;;;;;;6.37;0.40;;;12.40;99.90;;;;;;5074294;28;20481;-83
2023/10/21 04:04:19;;;;;;;0.40;0.30;;;12.40;99.90;;;;;;5074341;28;20465;-82
2023/10/21 04:06:46;;;;;;;0.40;0.30;;;12.50;99.90;;;;;;5073997;28;20456;-82
2023/10/21 04:09:13;;;;;;;0.30;0.30;;;12.50;99.90;;;;;;5074274;28;20443;-82
2023/10/21 04:11:41;;;;;;;0.50;0.30;;;12.50;99.90;;;;;;5074179;28;20449;-82
2023/10/21 04:14:10;;;;;;;0.73;0.40;;;12.60;99.90;;;;;;5074125;28;20518;-82
2023/10/21 04:16:42;;;;;;;0.30;0.30;;;12.60;99.90;;;;;;5074193;28;20499;-82
2023/10/21 04:19:09;;;;;;;0.40;0.27;;;12.60;99.90;;;;;;5074107;28;20433;-82
2023/10/21 04:21:36;;;;;;;0.30;0.30;;;12.50;99.90;;;;;;5073628;28;20510;-82
2023/10/21 04:24:03;;;;;;;0.40;0.40;;;12.50;99.90;;;;;;5073660;28;20822;-82
2023/10/21 04:26:30;;;;;;;0.30;0.30;;;12.50;99.90;;;;;;5073606;28;20451;-82
2023/10/21 04:28:56;;;;;;;1.07;0.43;;;12.50;99.90;;;;;;5073877;28;20822;-82
2023/10/21 04:31:24;;;;;;;0.40;0.40;;;12.50;99.90;;;;;;5073586;28;20433;-83
2023/10/21 04:33:52;;;;;;;0.40;0.30;;;12.50;99.90;;;;;;5073733;28;20483;-82
2023/10/21 04:36:19;;;;;;;0.40;0.40;;;12.40;99.90;;;;;;5073762;28;20440;-82
2023/10/21 04:38:46;;;;;;;0.63;0.40;;;12.50;99.90;;;;;;5073719;28;20453;-82
2023/10/21 04:41:13;;;;;;;0.50;0.40;;;12.50;99.90;;;;;;5073476;28;20827;-82
2023/10/21 04:43:39;;;;;;;0.50;0.40;;;12.50;99.90;;;;;;5073354;28;20488;-82
2023/10/21 04:46:06;;;;;;;3.27;0.30;;;12.50;99.90;;;;;;5073671;28;20433;-82
2023/10/21 04:48:33;;;;;;;0.50;0.30;;;12.50;99.90;;;;;;5073596;28;20441;-82
2023/10/21 04:51:01;;;;;;;0.40;0.40;;;12.50;99.90;;;;;;5073115;28;20481;-82
2023/10/21 04:53:28;;;;;;;0.40;0.30;;;12.50;99.90;;;;;;5073304;28;20553;-83
2023/10/21 04:55:56;;;;;;;3.33;0.30;;;12.60;99.90;;;;;;5073201;28;20455;-82
2023/10/21 04:58:23;;;;;;;0.40;0.40;;;12.50;99.90;;;;;;5073142;28;20964;-82
2023/10/21 05:00:50;;;;;;;1.13;0.40;;;12.70;99.90;;;;;;5073440;28;20449;-82
2023/10/21 05:03:17;;;;;;;0.30;0.20;;;12.50;99.90;;;;;;5073253;28;20492;-82
2023/10/21 05:05:43;;;;;;;0.30;0.30;;;12.60;99.90;;;;;;5073415;28;20441;-82
2023/10/21 05:08:11;;;;;;;0.40;0.30;;;12.70;99.90;;;;;;5073363;28;20448;-83
2023/10/21 05:10:38;;;;;;;0.30;0.30;;;12.60;99.90;;;;;;5073313;28;20449;-82
2023/10/21 05:13:05;;;;;;;0.30;0.30;;;12.60;99.90;;;;;;5073250;28;20461;-82
2023/10/21 05:15:32;;;;;;;0.40;0.30;;;12.70;99.90;;;;;;5073297;28;20451;-82
2023/10/21 05:17:59;;;;;;;0.30;0.30;;;12.70;99.90;;;;;;5073292;28;20448;-82
2023/10/21 05:20:26;;;;;;;0.30;0.30;;;12.70;99.90;;;;;;5073255;28;20472;-82
2023/10/21 05:22:53;;;;;;;0.50;0.50;;;12.70;99.90;;;;;;5073038;28;20984;-82
2023/10/21 05:25:21;;;;;;;0.30;0.27;;;12.70;99.90;;;;;;5073197;28;20445;-82
2023/10/21 05:27:48;;;;;;;0.30;0.30;;;12.60;99.90;;;;;;5073172;28;20449;-82
2023/10/21 05:30:15;;;;;;;0.30;0.30;;;12.70;99.90;;;;;;5072806;28;20449;-82
2023/10/21 05:32:43;;;;;;;0.40;0.30;;;12.70;99.90;;;;;;5073040;28;20461;-82
2023/10/21 05:35:10;;;;;;;0.30;0.30;;;12.70;99.90;;;;;;5073135;28;20448;-82
2023/10/21 05:37:36;;;;;;;0.40;0.30;;;12.70;99.90;;;;;;5075088;28;20437;-82
2023/10/21 05:40:05;;;;;;;0.30;0.30;;;12.60;99.90;;;;;;5077179;28;20787;-82
2023/10/21 05:42:33;;;;;;;0.80;0.30;;;12.60;99.90;;;;;;5076652;28;20563;-82
2023/10/21 05:45:00;;;;;;;0.30;0.30;;;12.70;99.90;;;;;;5076726;28;20956;-82
2023/10/21 05:47:27;;;;;;;0.57;0.30;;;12.60;99.90;;;;;;5077239;28;20441;-82
2023/10/21 05:49:54;;;;;;;0.30;0.30;;;12.60;99.90;;;;;;5076778;28;20502;-82
2023/10/21 05:52:20;;;;;;;0.30;0.30;;;12.60;99.90;;;;;;5076849;28;20455;-82
2023/10/21 05:54:47;;;;;;;0.30;0.30;;;12.50;99.90;;;;;;5076544;28;20799;-82
2023/10/21 05:57:14;;;;;;;4.70;0.30;;;12.60;99.90;;;;;;5076511;28;20934;-82
2023/10/21 05:59:42;;;;;;;0.30;0.30;;;12.50;99.90;;;;;;5076845;28;20448;-82
2023/10/21 06:02:09;;;;;;;0.37;0.30;;;12.50;99.90;;;;;;5076633;28;20441;-82
2023/10/21 06:04:36;;;;;;;0.40;0.30;;;12.40;99.90;;;;;;5076815;28;20475;-82
2023/10/21 06:07:02;;;;;;;0.30;0.30;;;12.40;99.90;;;;;;5076606;28;20451;-82
2023/10/21 06:09:29;;;;;;;0.30;0.30;;;12.40;99.90;;;;;;5076316;28;20433;-82
2023/10/21 06:11:56;;;;;;;0.40;0.33;;;12.40;99.90;;;;;;5076551;28;20447;-82
2023/10/21 06:14:23;;;;;;;0.60;0.40;;;12.40;99.90;;;;;;5076085;28;20989;-82
2023/10/21 06:16:51;;;;;;;0.30;0.20;;;12.40;99.90;;;;;;5076140;28;20827;-83
2023/10/21 06:19:18;;;;;;;0.67;0.30;;;12.50;99.90;;;;;;5076405;28;20444;-83
2023/10/21 06:21:45;;;;;;;0.40;0.30;;;12.80;99.90;;;;;;5076411;28;20429;-82
2023/10/21 06:24:12;;;;;;;0.30;0.30;;;12.50;99.90;;;;;;5076197;28;20571;-82
2023/10/21 06:26:39;;;;;;;0.30;0.30;;;12.40;99.90;;;;;;5076273;28;20444;-83
2023/10/21 06:29:06;;;;;;;0.40;0.30;;;12.50;99.90;;;;;;5076186;28;20460;-83
2023/10/21 06:31:33;;;;;;;0.30;0.30;;;12.50;99.90;;;;;;5076136;28;20452;-82
2023/10/21 06:34:01;;;;;;;0.30;0.30;;;12.50;99.90;;;;;;5076056;28;20461;-83
2023/10/21 06:36:28;;;;;;;0.40;0.30;;;12.60;99.90;;;;;;5076305;28;20429;-83
2023/10/21 06:38:55;;;;;;;0.67;0.30;;;12.60;99.90;;;;;;5075764;28;20937;-83
2023/10/21 06:41:22;;;;;;;0.30;0.30;;;12.60;99.90;;;;;;5076024;28;20440;-83
2023/10/21 06:43:48;;;;;;;0.37;0.30;;;12.60;99.90;;;;;;5075423;28;20488;-83
2023/10/21 06:46:17;;;;;;;0.30;0.30;;;12.60;99.90;;;;;;5075902;28;20452;-83
2023/10/21 06:48:44;;;;;;;0.40;0.30;;;12.70;99.90;;;;;;5074640;28;20448;-83
2023/10/21 06:51:13;;;;;;;0.30;0.30;;;12.70;99.90;;;;;;5075558;28;20977;-82
2023/10/21 06:53:40;;;;;;;0.40;0.30;;;12.70;99.90;;;;;;5075689;28;20518;-83
2023/10/21 06:56:11;;;;;;;0.30;0.30;;;12.80;99.90;;;;;;5075753;28;20441;-82
2023/10/21 06:58:38;;;;;;;0.30;0.30;;;12.80;99.90;;;;;;5075726;28;20428;-83
2023/10/21 07:01:04;;;;;;;0.40;0.30;;;12.80;99.90;;;;;;5075499;28;20449;-83
2023/10/21 07:03:31;;;;;;;0.30;0.30;;;12.90;99.90;;;;;;5075431;28;20500;-82
2023/10/21 07:05:58;;;;;;;0.50;0.30;;;12.80;99.90;;;;;;5075557;28;20471;-82
2023/10/21 07:08:26;;;;;;;0.60;0.30;;;12.90;99.90;;;;;;5075519;28;20443;-82
2023/10/21 07:10:53;;;;;;;0.30;0.30;;;12.90;99.90;;;;;;5075478;28;20449;-82
2023/10/21 07:13:20;;;;;;;0.40;0.30;;;12.90;99.90;;;;;;5075049;28;20457;-83
2023/10/21 07:15:47;;;;;;;0.30;0.30;;;13.00;99.90;;;;;;5075412;28;20432;-83
2023/10/21 07:18:14;;;;;;;0.30;0.30;;;13.00;99.90;;;;;;5075121;28;21011;-82
2023/10/21 07:20:41;;;;;;;0.30;0.30;;;13.00;99.90;;;;;;5074997;28;20797;-82
2023/10/21 07:23:09;;;;;;;0.30;0.30;;;13.00;99.90;;;;;;5075178;28;20500;-83
2023/10/21 07:25:39;;;;;;;0.33;0.30;;;13.00;99.90;;;;;;5074897;28;20453;-83
2023/10/21 07:28:06;;;;;;;0.30;0.20;;;13.10;99.90;;;;;;5074926;28;20805;-82
2023/10/21 07:30:33;;;;;;;0.30;0.30;;;13.10;99.90;;;;;;5075131;28;20444;-83
2023/10/21 07:33:00;;;;;;;0.37;0.30;;;13.20;99.90;;;;;;5075172;28;20461;-83
2023/10/21 07:35:27;;;;;;;0.30;0.30;;;13.10;99.90;;;;;;5075206;28;20865;-83
2023/10/21 07:37:54;;;;;;;3.20;0.40;;;13.20;99.90;;;;;;5074949;28;20441;-83
2023/10/21 07:40:21;;;;;;;0.30;0.30;;;13.20;99.90;;;;;;5075017;28;21003;-83
2023/10/21 07:42:49;;;;;;;2.00;0.73;;;13.30;99.90;;;;;;5074652;28;20546;-83
2023/10/21 07:45:17;;;;;;;0.30;0.30;;;13.30;99.90;;;;;;5074939;28;20456;-83
2023/10/21 07:47:44;;;;;;;0.30;0.30;;;13.40;99.90;;;;;;5074458;28;20489;-82
2023/10/21 07:50:13;;;;;;;0.37;0.30;;;13.40;99.90;;;;;;5074397;28;20477;-82
2023/10/21 07:52:40;;;;;;;0.40;0.40;;;13.40;99.90;;;;;;5074589;28;20474;-83
2023/10/21 07:55:07;;;;;;;7.50;0.73;;;13.50;99.90;;;;;;5074695;28;20476;-83
2023/10/21 07:57:34;;;;;;;0.40;0.30;;;13.60;99.90;;;;;;5074557;28;20444;-83
2023/10/21 08:00:04;;;;;;;1.23;0.30;;;13.60;99.90;;;;;;5074267;28;20536;-83
2023/10/21 08:02:31;;;;;;;0.30;0.30;;;13.70;99.90;;;;;;5075082;28;20440;-83
2023/10/21 08:04:58;;;;;;;0.30;0.30;;;13.80;99.90;;;;;;5074355;28;20508;-84
2023/10/21 08:07:25;;;;;;;0.40;0.30;;;13.80;99.90;;;;;;5074016;28;20995;-83
2023/10/21 08:09:52;;;;;;;0.40;0.30;;;13.90;99.90;;;;;;5074274;28;20452;-83
2023/10/21 08:12:19;;;;;;;0.30;0.30;;;14.00;99.90;;;;;;5074191;28;20827;-83
2023/10/21 08:14:45;;;;;;;0.30;0.30;;;14.10;99.90;;;;;;5073927;28;20818;-83
2023/10/21 08:17:14;;;;;;;8.33;0.50;;;14.30;99.90;;;;;;5073873;28;20453;-83
2023/10/21 08:19:41;;;;;;;1.60;0.30;;;14.40;99.90;;;;;;5073781;28;21003;-84
2023/10/21 08:22:08;;;;;;;0.30;0.30;;;14.50;99.90;;;;;;5074045;28;20445;-83
2023/10/21 08:24:35;;;;;;;0.30;0.20;;;14.60;99.90;;;;;;5073855;28;20477;-83
2023/10/21 08:27:02;;;;;;;0.30;0.30;;;14.80;99.90;;;;;;5073969;28;20449;-83
2023/10/21 08:29:29;;;;;;;0.40;0.30;;;14.90;99.90;;;;;;5073946;28;20450;-83
2023/10/21 08:31:56;;;;;;;0.30;0.30;;;15.00;99.90;;;;;;5073916;28;20445;-84
2023/10/21 08:34:24;;;;;;;1.57;0.30;;;15.10;99.90;;;;;;5073909;28;20465;-84
2023/10/21 08:36:51;;;;;;;0.30;0.20;;;15.30;99.90;;;;;;5073745;28;20452;-83
2023/10/21 08:39:20;;;;;;;0.40;0.30;;;15.50;99.90;;;;;;5073752;28;20451;-83
2023/10/21 08:41:50;;;;;;;0.30;0.30;;;15.90;99.90;;;;;;5073728;28;20512;-83
2023/10/21 08:44:20;;;;;;;0.30;0.30;;;16.20;99.90;;;;;;5073224;28;20485;-84
2023/10/21 08:46:48;;;;;;;0.73;0.40;;;16.50;99.90;;;;;;5073684;28;20429;-83
2023/10/21 08:49:16;;;;;;;0.80;0.40;;;17.10;99.90;;;;;;5073633;28;20456;-83
2023/10/21 08:51:46;;;;;;;0.30;0.20;;;17.90;99.90;;;;;;5073205;28;20480;-84
2023/10/21 08:54:15;;;;;;;0.77;0.30;;;18.60;99.90;;;;;;5073907;28;20465;-84
2023/10/21 08:56:42;;;;;;;0.30;0.30;;;19.20;99.90;;;;;;5073705;28;20815;-85
2023/10/21 08:59:09;;;;;;;0.50;0.40;;;19.20;99.90;;;;;;5073240;28;20453;-84
2023/10/21 09:01:36;;;;;;;0.80;0.40;;;19.00;99.90;;;;;;5073540;28;20535;-83
2023/10/21 09:04:03;;;;;;;0.30;0.30;;;18.70;99.90;;;;;;5073431;28;20484;-83
2023/10/21 09:06:30;;;;;;;0.30;0.30;;;18.90;99.90;;;;;;5073636;28;20449;-83
2023/10/21 09:08:59;;;;;;;0.87;0.37;;;19.10;99.90;;;;;;5073393;28;20448;-83
2023/10/21 09:11:28;;;;;;;0.80;0.30;;;20.20;99.90;;;;;;5072476;28;20953;-83
2023/10/21 09:13:58;;;;;;;0.30;0.30;;;20.90;99.90;;;;;;5073383;28;20472;-83
2023/10/21 09:16:29;;;;;;;0.40;0.40;;;21.60;99.90;;;;;;5073437;28;20425;-83
2023/10/21 09:18:57;;;;;;;0.50;0.30;;;22.70;99.90;;;;;;5073368;28;20493;-83
2023/10/21 09:21:36;;;;;;;0.50;0.30;;;23.40;99.90;;;;;;5073250;28;20502;-84
2023/10/21 09:24:05;;;;;;;0.57;0.40;;;24.00;99.90;;;;;;5073161;28;20490;-84
2023/10/21 09:26:36;;;;;;;0.40;0.40;;;24.30;99.90;;;;;;5073256;28;20198;-84
2023/10/21 09:29:07;;;;;;;0.40;0.30;;;24.70;99.90;;;;;;5073011;28;20196;-83
2023/10/21 09:31:48;;;;;;;0.35;0.30;;;25.10;99.90;;;;;;5073230;28;20292;-84
2023/10/21 09:34:27;;;;;;;0.52;0.30;;;24.90;99.90;;;;;;5073148;28;20222;-84
2023/10/21 09:36:55;;;;;;;0.32;0.30;;;24.70;99.90;;;;;;5073163;28;20197;-84
2023/10/21 09:39:26;;;;;;;0.40;0.30;;;24.70;99.90;;;;;;5072800;28;20583;-83
2023/10/21 09:41:53;;;;;;;0.57;0.30;;;24.60;99.90;;;;;;5073709;28;20179;-83
2023/10/21 09:44:20;;;;;;;0.40;0.30;;;24.40;99.90;;;;;;5072921;28;20229;-83
2023/10/21 09:46:49;;;;;;;1.25;0.40;;;24.30;99.90;;;;;;5073039;28;20214;-82
2023/10/21 09:49:16;;;;;;;1.92;0.40;;;24.20;99.90;;;;;;5072786;28;20729;-85
2023/10/21 09:51:51;;;;;;;0.30;0.30;;;23.70;99.90;;;;;;5072668;28;20237;-85
2023/10/21 09:54:32;;;;;;;0.40;0.30;;;23.30;99.90;;;;;;5073533;28;20217;-85
2023/10/21 09:57:00;;;;;;;0.37;0.30;;;22.30;99.90;;;;;;5072752;28;20678;-84
2023/10/21 09:59:29;;;;;;;0.30;0.20;;;21.40;99.90;;;;;;5073025;28;20209;-84
2023/10/21 10:01:57;;;;;;;1.13;0.30;;;21.20;99.90;;;;;;5072981;28;20458;-84
2023/10/21 10:04:26;;;;;;;0.30;0.30;;;21.20;99.90;;;;;;5072475;28;20491;-84
2023/10/21 10:06:59;;;;;;;0.30;0.30;;;21.00;99.90;;;;;;5072811;28;20445;-82
2023/10/21 10:09:29;;;;;;;0.30;0.30;;;20.80;99.90;;;;;;5072901;28;20491;-85
2023/10/21 10:11:59;;;;;;;0.37;0.30;;;20.80;99.90;;;;;;5072859;28;20788;-85
2023/10/21 10:14:28;;;;;;;0.30;0.30;;;20.80;99.90;;;;;;5072820;28;20874;-84
2023/10/21 10:16:55;;;;;;;0.30;0.30;;;20.90;99.90;;;;;;5072781;28;20457;-84
2023/10/21 10:19:37;;;;;;;0.30;0.30;;;21.10;99.90;;;;;;5072769;28;20435;-85
2023/10/21 10:22:18;;;;;;;0.30;0.30;;;21.30;99.90;;;;;;5072743;28;20432;-84
2023/10/21 10:24:51;;;;;;;0.40;0.30;;;21.20;99.90;;;;;;5076044;28;20483;-83
2023/10/21 10:27:18;;;;;;;0.40;0.30;;;21.40;99.90;;;;;;5077002;28;20778;-84
2023/10/21 10:29:50;;;;;;;0.50;0.30;;;21.60;99.90;;;;;;5076298;28;20526;-85
2023/10/21 10:32:17;;;;;;;0.50;0.30;;;21.60;99.90;;;;;;5076669;28;20218;-84
2023/10/21 10:34:53;;;;;;;0.40;0.30;;;21.40;99.90;;;;;;5076244;28;20551;-86
2023/10/21 10:37:50;;;;;;;0.30;0.20;;;21.20;99.90;;;;;;5076551;28;20555;-86
2023/10/21 10:40:20;;;;;;;0.37;0.30;;;21.00;99.90;;;;;;5075329;28;21006;-86
2023/10/21 10:42:47;;;;;;;0.40;0.30;;;21.10;99.90;;;;;;5075933;28;20977;-87
2023/10/21 10:45:13;;;;;;;0.40;0.33;;;21.00;99.90;;;;;;5075813;28;21000;-85
2023/10/21 10:47:41;;;;;;;1.43;0.40;;;20.20;99.90;;;;;;5076310;28;20452;-86
2023/10/21 10:50:14;;;;;;;0.40;0.30;;;19.80;99.90;;;;;;5075624;28;20834;-87
2023/10/21 10:52:41;;;;;;;4.23;0.37;;;19.50;99.90;;;;;;5075942;28;21037;-87
2023/10/21 10:55:14;;;;;;;0.80;0.30;;;19.30;99.90;;;;;;5076083;28;20446;-86
2023/10/21 10:57:43;;;;;;;0.30;0.30;;;19.30;99.90;;;;;;5076126;28;20439;-87
2023/10/21 11:00:14;;;;;;;0.40;0.30;;;19.10;99.90;;;;;;5076056;28;20449;-86
2023/10/21 11:02:44;;;;;;;0.93;0.30;;;18.80;99.90;;;;;;5076257;28;20464;-88
2023/10/21 11:05:17;;;;;;;0.40;0.30;;;18.70;99.90;;;;;;5075591;28;20492;-88
2023/10/21 11:07:44;;;;;;;0.40;0.30;;;18.60;99.90;;;;;;5075805;28;20991;-86
2023/10/21 11:10:14;;;;;;;2.40;0.40;;;18.70;99.90;;;;;;5075769;28;20451;-87
2023/10/21 11:12:42;;;;;;;0.50;0.30;;;18.80;99.90;;;;;;5075721;28;20973;-87
2023/10/21 11:15:12;;;;;;;0.30;0.30;;;18.80;99.90;;;;;;5075849;28;20443;-87
2023/10/21 11:17:40;;;;;;;0.50;0.50;;;18.90;99.90;;;;;;5075780;28;20448;-87
2023/10/21 11:20:08;;;;;;;0.50;0.37;;;18.80;99.90;;;;;;5075849;28;20498;-87
2023/10/21 11:22:35;;;;;;;0.30;0.30;;;18.80;99.90;;;;;;5075649;28;20510;-87
2023/10/21 11:25:03;;;;;;;0.40;0.30;;;18.60;99.90;;;;;;5075476;28;20479;-87
2023/10/21 11:27:30;;;;;;;0.40;0.30;;;18.30;99.90;;;;;;5075498;28;20453;-87
2023/10/21 11:30:00;;;;;;;0.50;0.30;;;18.10;99.90;;;;;;5075382;28;20809;-87
2023/10/21 11:32:28;;;;;;;1.67;0.30;;;17.80;99.90;;;;;;5075413;28;20456;-87
2023/10/21 11:34:55;;;;;;;0.30;0.30;;;17.60;99.90;;;;;;5074758;28;20804;-85
2023/10/21 11:37:21;;;;;;;0.53;0.40;;;17.80;99.90;;;;;;5075371;28;20445;-86
2023/10/21 11:39:49;;;;;;;0.40;0.30;;;17.40;99.90;;;;;;5075016;28;20452;-87
2023/10/21 11:42:17;;;;;;;0.30;0.23;;;17.30;99.90;;;;;;5075204;28;20449;-87
2023/10/21 11:44:55;;;;;;;2.00;0.40;;;17.10;99.90;;;;;;5075361;28;20534;-87
2023/10/21 11:47:26;;;;;;;0.40;0.30;;;17.00;99.90;;;;;;5074988;28;20425;-86
2023/10/21 11:49:54;;;;;;;0.97;0.37;;;16.90;99.90;;;;;;5074787;28;20496;-86
2023/10/21 11:52:21;;;;;;;0.30;0.30;;;17.00;99.90;;;;;;5074678;28;20425;-87
2023/10/21 11:55:19;;;;;;;0.40;0.30;;;17.10;99.90;;;;;;5074990;28;20445;-87
2023/10/21 11:58:19;;;;;;;0.30;0.30;;;17.00;99.90;;;;;;5074589;28;20449;-86
2023/10/21 12:14:59;;;;;;;1.03;0.50;;;17.40;99.90;;;;;;5036199;28;20845;-86
2023/10/21 12:18:12;;;;;;;0.40;0.30;;;17.50;99.90;;;;;;5075003;28;20524;-86
2023/10/21 12:21:05;;;;;;;0.30;0.30;;;17.50;99.90;;;;;;5073888;28;20444;-86
2023/10/21 12:26:40;;;;;;;0.83;0.30;;;17.50;99.90;;;;;;5047742;28;20480;-84
2023/10/21 12:29:53;;;;;;;0.30;0.30;;;17.30;99.90;;;;;;5074190;28;20780;-86
2023/10/21 12:35:32;;;;;;;0.33;0.30;;;17.10;99.90;;;;;;5049325;28;20433;-85
2023/10/21 12:40:59;;;;;;;0.50;0.30;;;16.70;99.90;;;;;;5071734;28;20429;-85
2023/10/21 12:43:29;;;;;;;0.90;0.30;;;16.60;99.90;;;;;;5073699;28;20459;-85
2023/10/21 12:45:59;;;;;;;0.60;0.40;;;16.60;99.90;;;;;;5073197;28;20477;-85
2023/10/21 12:48:25;;;;;;;0.37;0.30;;;16.70;99.90;;;;;;5073345;28;20445;-85
2023/10/21 12:50:54;;;;;;;0.30;0.30;;;16.60;99.90;;;;;;5073488;28;20485;-86
2023/10/21 12:53:25;;;;;;;0.30;0.30;;;16.60;99.90;;;;;;5073626;28;20222;-86
2023/10/21 12:55:52;;;;;;;0.40;0.30;;;16.70;99.90;;;;;;5073524;28;20970;-86
2023/10/21 12:58:19;;;;;;;0.60;0.40;;;16.70;99.90;;;;;;5074344;28;20481;-86
2023/10/21 13:00:45;;;;;;;0.30;0.30;;;16.60;99.90;;;;;;5073532;28;20968;-85
2023/10/21 13:03:12;;;;;;;0.30;0.30;;;16.60;99.90;;;;;;5073469;28;20461;-85
2023/10/21 13:05:39;;;;;;;0.47;0.40;;;16.70;99.90;;;;;;5073487;28;20477;-85
2023/10/21 13:08:09;;;;;;;0.30;0.30;;;16.70;99.90;;;;;;5073306;28;20448;-85
2023/10/21 13:10:37;;;;;;;0.30;0.30;;;16.70;99.90;;;;;;5073215;28;20449;-86
2023/10/21 13:13:05;;;;;;;0.37;0.33;;;16.70;99.90;;;;;;5073421;28;20460;-84
2023/10/21 13:15:31;;;;;;;2.13;0.40;;;16.50;99.90;;;;;;5073065;28;20934;-85
2023/10/21 13:18:03;;;;;;;0.60;0.30;;;16.60;99.90;;;;;;5073416;28;20441;-85